Time;durP1;ratioP1;P1;durP2;ratioP2;P2;SDS_P1;SDS_P2;PMS_P1;PMS_P2;Temp;Humidity;BMP_temperature;BMP_pressure;BME280_temperature;BME280_humidity;BME280_pressure;Samples;Min_cycle;Max_cycle;Signal;HPM_P1;HPM_P2
2021/04/06 00:02:09;;;;;;;;;6.33;4.67;;;;;;;;5001087;28;8824;-76
2021/04/06 00:04:40;;;;;;;;;6.67;6.67;;;;;;;;5001958;28;8906;-76
2021/04/06 00:07:09;;;;;;;;;3.00;3.00;;;;;;;;5003038;28;8873;-76
2021/04/06 00:09:38;;;;;;;;;4.67;4.67;;;;;;;;4999968;28;8860;-76
2021/04/06 00:12:08;;;;;;;;;3.33;3.33;;;;;;;;5000786;28;8887;-76
2021/04/06 00:14:35;;;;;;;;;4.00;4.00;;;;;;;;5001164;28;8856;-76
2021/04/06 00:17:04;;;;;;;;;6.00;6.00;;;;;;;;5009617;28;8878;-76
2021/04/06 00:19:33;;;;;;;;;4.00;4.00;;;;;;;;5000451;28;8886;-76
2021/04/06 00:22:02;;;;;;;;;4.67;4.67;;;;;;;;5000412;28;9703;-76
2021/04/06 00:24:31;;;;;;;;;6.33;6.33;;;;;;;;5001208;28;8889;-76
2021/04/06 00:27:08;;;;;;;;;7.50;7.50;;;;;;;;4998998;28;8884;-77
2021/04/06 00:29:37;;;;;;;;;9.00;9.00;;;;;;;;5000857;28;8883;-75
2021/04/06 00:32:05;;;;;;;;;4.00;4.00;;;;;;;;5000780;28;8944;-76
2021/04/06 00:34:33;;;;;;;;;4.00;4.00;;;;;;;;5001155;28;10013;-78
2021/04/06 00:37:04;;;;;;;;;1.67;1.67;;;;;;;;5001579;28;8864;-76
2021/04/06 00:39:35;;;;;;;;;4.00;4.00;;;;;;;;5005388;28;8870;-79
2021/04/06 00:42:06;;;;;;;;;1.67;1.67;;;;;;;;4983882;28;8841;-80
2021/04/06 00:44:37;;;;;;;;;4.00;4.00;;;;;;;;4991339;28;8887;-77
2021/04/06 00:47:05;;;;;;;;;3.00;3.00;;;;;;;;5000676;28;8875;-76
2021/04/06 00:49:34;;;;;;;;;4.00;4.00;;;;;;;;5001105;28;8940;-77
2021/04/06 00:52:04;;;;;;;;;4.00;4.00;;;;;;;;5000819;28;8874;-76
2021/04/06 00:54:34;;;;;;;;;6.33;6.33;;;;;;;;5002148;28;8931;-77
2021/04/06 00:57:03;;;;;;;;;3.00;3.00;;;;;;;;5003659;28;8945;-76
2021/04/06 00:59:31;;;;;;;;;4.00;4.00;;;;;;;;5010745;28;8888;-76
2021/04/06 01:02:00;;;;;;;;;3.00;3.00;;;;;;;;4999848;28;8855;-77
2021/04/06 01:04:29;;;;;;;;;4.67;4.67;;;;;;;;5004243;28;8920;-77
2021/04/06 01:07:03;;;;;;;;;3.00;3.00;;;;;;;;4985288;28;8844;-76
2021/04/06 01:09:44;;;;;;;;;8.00;5.00;;;;;;;;5004621;28;8880;-75
2021/04/06 01:12:13;;;;;;;;;9.00;7.00;;;;;;;;5004600;28;8877;-78
2021/04/06 01:14:43;;;;;;;;;6.00;6.00;;;;;;;;5002885;28;8888;-74
2021/04/06 01:17:13;;;;;;;;;6.50;6.50;;;;;;;;5004637;28;8870;-77
2021/04/06 01:19:41;;;;;;;;;8.00;8.00;;;;;;;;5002651;28;8864;-77
2021/04/06 01:22:09;;;;;;;;;3.00;3.00;;;;;;;;5012048;28;8898;-77
2021/04/06 01:24:39;;;;;;;;;6.00;6.00;;;;;;;;5004429;28;8859;-77
2021/04/06 01:27:08;;;;;;;;;4.50;4.50;;;;;;;;5003448;28;8881;-77
2021/04/06 01:29:36;;;;;;;;;3.25;3.25;;;;;;;;5004463;28;8856;-77
2021/04/06 01:32:03;;;;;;;;;4.00;4.00;;;;;;;;5003068;28;8809;-78
2021/04/06 01:34:31;;;;;;;;;5.50;5.50;;;;;;;;5003085;28;9002;-77
2021/04/06 01:36:58;;;;;;;;;6.00;6.00;;;;;;;;5002843;28;9716;-77
2021/04/06 01:39:27;;;;;;;;;6.00;6.00;;;;;;;;5004071;28;8891;-76
2021/04/06 01:41:59;;;;;;;;;5.50;5.50;;;;;;;;5003086;28;8875;-77
2021/04/06 01:44:26;;;;;;;;;6.00;6.00;;;;;;;;5010799;28;8879;-77
2021/04/06 01:46:54;;;;;;;;;4.50;4.50;;;;;;;;5004037;28;9708;-77
2021/04/06 01:49:22;;;;;;;;;4.00;4.00;;;;;;;;5005655;28;8865;-77
2021/04/06 01:51:49;;;;;;;;;4.00;4.00;;;;;;;;5003476;28;9683;-78
2021/04/06 01:54:18;;;;;;;;;3.00;3.00;;;;;;;;5001200;28;8883;-76
2021/04/06 01:56:49;;;;;;;;;3.50;3.50;;;;;;;;5003757;28;8930;-76
2021/04/06 01:59:22;;;;;;;;;3.75;3.75;;;;;;;;5002798;28;8858;-76
2021/04/06 02:01:52;;;;;;;;;4.50;4.50;;;;;;;;5004211;28;8797;-76
2021/04/06 02:04:21;;;;;;;;;6.00;6.00;;;;;;;;4987101;28;8858;-75
2021/04/06 02:06:48;;;;;;;;;6.00;6.00;;;;;;;;4983936;28;8868;-75
2021/04/06 02:09:17;;;;;;;;;5.50;5.50;;;;;;;;4984708;28;8864;-76
2021/04/06 02:11:45;;;;;;;;;4.00;4.00;;;;;;;;5002616;28;8902;-75
2021/04/06 02:14:13;;;;;;;;;3.75;3.75;;;;;;;;5010442;28;9726;-75
2021/04/06 02:16:46;;;;;;;;;4.00;4.00;;;;;;;;5002559;28;8970;-76
2021/04/06 02:19:21;;;;;;;;;4.50;4.50;;;;;;;;5002448;28;8893;-76
2021/04/06 02:21:52;;;;;;;;;6.00;6.00;;;;;;;;5003783;28;8883;-76
2021/04/06 02:24:47;;;;;;;;;4.50;4.50;;;;;;;;5006968;28;8863;-76
2021/04/06 02:27:16;;;;;;;;;6.00;6.00;;;;;;;;4969023;28;8900;-77
2021/04/06 02:29:45;;;;;;;;;3.00;3.00;;;;;;;;5002821;28;8941;-76
2021/04/06 02:32:15;;;;;;;;;6.00;6.00;;;;;;;;5002071;28;8935;-77
2021/04/06 02:34:43;;;;;;;;;4.00;4.00;;;;;;;;5002561;28;8860;-77
2021/04/06 02:37:15;;;;;;;;;4.00;4.00;;;;;;;;5002020;28;8885;-78
2021/04/06 02:39:42;;;;;;;;;4.50;4.50;;;;;;;;5002483;28;8869;-79
2021/04/06 02:42:25;;;;;;;;;3.25;3.25;;;;;;;;5001564;28;8920;-77
2021/04/06 02:44:57;;;;;;;;;4.00;4.00;;;;;;;;5000003;28;8885;-77
2021/04/06 02:47:26;;;;;;;;;4.00;4.00;;;;;;;;5011286;28;8979;-78
2021/04/06 02:49:53;;;;;;;;;1.50;1.50;;;;;;;;5002833;28;8910;-78
2021/04/06 02:52:20;;;;;;;;;3.50;3.50;;;;;;;;5002490;28;8848;-79
2021/04/06 02:54:47;;;;;;;;;4.00;4.00;;;;;;;;4999706;28;8879;-77
2021/04/06 02:57:21;;;;;;;;;5.25;5.25;;;;;;;;5001786;28;8890;-77
2021/04/06 02:59:48;;;;;;;;;4.00;4.00;;;;;;;;5001812;28;8875;-78
2021/04/06 03:02:15;;;;;;;;;7.00;7.00;;;;;;;;5001789;28;8833;-78
2021/04/06 03:04:44;;;;;;;;;5.00;5.00;;;;;;;;5001597;28;8850;-77
2021/04/06 03:07:22;;;;;;;;;4.50;4.50;;;;;;;;5005178;28;9949;-76
2021/04/06 03:09:55;;;;;;;;;6.00;6.00;;;;;;;;5007012;28;8971;-77
2021/04/06 03:12:27;;;;;;;;;3.00;3.00;;;;;;;;5001553;28;8864;-78
2021/04/06 03:14:54;;;;;;;;;4.50;4.50;;;;;;;;5002440;28;8869;-78
2021/04/06 03:17:21;;;;;;;;;6.00;6.00;;;;;;;;5001183;28;8870;-76
2021/04/06 03:19:56;;;;;;;;;6.75;6.75;;;;;;;;5001631;28;8948;-77
2021/04/06 03:22:23;;;;;;;;;6.00;6.00;;;;;;;;4998054;28;8875;-77
2021/04/06 03:24:50;;;;;;;;;7.00;7.00;;;;;;;;5002731;28;9129;-78
2021/04/06 03:27:26;;;;;;;;;4.50;4.50;;;;;;;;5001810;28;8925;-78
2021/04/06 03:29:53;;;;;;;;;8.00;8.00;;;;;;;;5004870;28;8902;-77
2021/04/06 03:32:21;;;;;;;;;4.00;4.00;;;;;;;;5002741;28;8837;-77
2021/04/06 03:34:51;;;;;;;;;6.00;6.00;;;;;;;;5001880;28;8851;-76
2021/04/06 03:37:18;;;;;;;;;7.00;4.00;;;;;;;;5004643;28;8973;-76
2021/04/06 03:39:45;;;;;;;;;4.00;4.00;;;;;;;;4980811;28;8998;-77
2021/04/06 03:42:12;;;;;;;;;6.75;6.75;;;;;;;;5000356;28;8981;-76
2021/04/06 03:44:39;;;;;;;;;3.75;3.75;;;;;;;;5000535;28;8880;-77
2021/04/06 03:47:06;;;;;;;;;6.00;6.00;;;;;;;;5000298;28;8893;-76
2021/04/06 03:49:34;;;;;;;;;6.00;6.00;;;;;;;;4987708;28;8873;-77
2021/04/06 03:52:08;;;;;;;;;6.00;6.00;;;;;;;;5007849;28;8854;-78
2021/04/06 03:54:43;;;;;;;;;3.00;3.00;;;;;;;;5001351;28;8885;-77
2021/04/06 03:57:33;;;;;;;;;7.00;7.00;;;;;;;;5000603;28;9669;-77
2021/04/06 04:00:00;;;;;;;;;6.25;6.25;;;;;;;;5000460;28;9625;-76
2021/04/06 04:02:27;;;;;;;;;3.75;3.75;;;;;;;;5001107;28;8837;-77
2021/04/06 04:04:54;;;;;;;;;1.00;1.00;;;;;;;;4999918;28;8876;-78
2021/04/06 04:07:22;;;;;;;;;4.00;4.00;;;;;;;;4983512;28;8883;-77
2021/04/06 04:09:49;;;;;;;;;9.00;9.00;;;;;;;;5000350;28;9631;-75
2021/04/06 04:12:16;;;;;;;;;3.00;3.00;;;;;;;;4982515;28;9029;-79
2021/04/06 04:14:43;;;;;;;;;6.00;6.00;;;;;;;;5008898;28;8863;-80
2021/04/06 04:17:11;;;;;;;;;5.50;5.50;;;;;;;;5004075;28;8893;-79
2021/04/06 04:19:38;;;;;;;;;3.25;3.25;;;;;;;;5002057;28;8872;-82
2021/04/06 04:22:05;;;;;;;;;4.00;4.00;;;;;;;;5000220;28;8876;-80
2021/04/06 04:24:33;;;;;;;;;7.00;7.00;;;;;;;;5000954;28;9030;-79
2021/04/06 04:27:00;;;;;;;;;4.50;4.50;;;;;;;;4982948;28;8859;-78
2021/04/06 04:29:27;;;;;;;;;2.00;2.00;;;;;;;;5002403;28;8895;-79
2021/04/06 04:31:54;;;;;;;;;3.00;3.00;;;;;;;;5005252;28;8832;-78
2021/04/06 04:34:21;;;;;;;;;3.00;3.00;;;;;;;;4987029;28;8884;-79
2021/04/06 04:36:48;;;;;;;;;3.75;3.75;;;;;;;;5014261;28;8903;-76
2021/04/06 04:39:14;;;;;;;;;5.75;5.00;;;;;;;;5004248;28;8888;-75
2021/04/06 04:41:42;;;;;;;;;2.50;2.50;;;;;;;;5005331;28;9619;-75
2021/04/06 04:44:09;;;;;;;;;3.25;3.25;;;;;;;;5004931;28;8864;-76
2021/04/06 04:46:36;;;;;;;;;3.00;3.00;;;;;;;;5005483;28;9006;-78
2021/04/06 04:49:03;;;;;;;;;4.00;4.00;;;;;;;;5008044;28;8945;-79
2021/04/06 04:51:31;;;;;;;;;4.00;4.00;;;;;;;;5004246;28;8865;-78
2021/04/06 04:53:59;;;;;;;;;1.50;1.50;;;;;;;;5005240;28;8867;-78
2021/04/06 04:56:26;;;;;;;;;3.00;3.00;;;;;;;;5003147;28;8914;-80
2021/04/06 04:58:54;;;;;;;;;5.50;5.50;;;;;;;;4995848;28;8877;-77
2021/04/06 05:01:21;;;;;;;;;4.00;4.00;;;;;;;;5003497;28;8812;-79
2021/04/06 05:03:48;;;;;;;;;3.00;3.00;;;;;;;;5003893;28;8921;-77
2021/04/06 05:06:15;;;;;;;;;3.00;3.00;;;;;;;;5004513;28;8873;-78
2021/04/06 05:08:42;;;;;;;;;3.00;3.00;;;;;;;;4986088;28;8968;-78
2021/04/06 05:11:09;;;;;;;;;3.00;3.00;;;;;;;;5004931;28;8884;-78
2021/04/06 05:13:36;;;;;;;;;5.00;5.00;;;;;;;;5004177;28;8924;-77
2021/04/06 05:16:05;;;;;;;;;2.50;2.50;;;;;;;;5004606;28;8860;-77
2021/04/06 05:18:31;;;;;;;;;3.50;3.50;;;;;;;;4986144;28;8899;-79
2021/04/06 05:20:59;;;;;;;;;3.00;3.00;;;;;;;;5014319;28;9009;-77
2021/04/06 05:23:25;;;;;;;;;4.00;4.00;;;;;;;;5004703;28;8881;-75
2021/04/06 05:25:54;;;;;;;;;4.00;4.00;;;;;;;;5003588;28;9345;-77
2021/04/06 05:28:21;;;;;;;;;3.25;3.25;;;;;;;;5003552;28;8855;-78
2021/04/06 05:30:48;;;;;;;;;4.00;4.00;;;;;;;;5001415;28;8830;-76
2021/04/06 05:33:16;;;;;;;;;3.75;3.75;;;;;;;;5004805;28;8890;-76
2021/04/06 05:35:44;;;;;;;;;2.25;2.00;;;;;;;;4986027;28;8884;-77
2021/04/06 05:38:11;;;;;;;;;3.25;3.25;;;;;;;;4987939;28;8876;-75
2021/04/06 05:40:38;;;;;;;;;4.00;4.00;;;;;;;;5002101;28;8898;-75
2021/04/06 05:43:05;;;;;;;;;1.00;1.00;;;;;;;;5009424;28;9003;-75
2021/04/06 05:45:33;;;;;;;;;3.00;3.00;;;;;;;;5004602;28;8868;-76
2021/04/06 05:48:03;;;;;;;;;3.50;3.50;;;;;;;;5002819;28;8951;-77
2021/04/06 05:50:31;;;;;;;;;4.50;4.50;;;;;;;;5010558;28;8860;-75
2021/04/06 05:52:59;;;;;;;;;2.00;2.00;;;;;;;;5003004;28;8868;-75
2021/04/06 05:55:26;;;;;;;;;6.00;6.00;;;;;;;;4986422;28;8876;-75
2021/04/06 05:57:55;;;;;;;;;4.00;4.00;;;;;;;;5003365;28;8918;-76
2021/04/06 06:00:23;;;;;;;;;3.00;3.00;;;;;;;;5002417;28;8865;-70
2021/04/06 06:02:51;;;;;;;;;1.00;1.00;;;;;;;;4997854;28;9568;-71
2021/04/06 06:05:19;;;;;;;;;3.67;3.67;;;;;;;;5000968;28;9689;-70
2021/04/06 06:07:47;;;;;;;;;3.00;3.00;;;;;;;;4983744;28;8864;-71
2021/04/06 06:10:31;;;;;;;;;3.00;3.00;;;;;;;;5007549;28;8902;-71
2021/04/06 06:13:16;;;;;;;;;3.00;3.00;;;;;;;;4989524;28;8875;-71
2021/04/06 06:15:43;;;;;;;;;4.67;4.67;;;;;;;;5001003;28;8868;-71
2021/04/06 06:18:10;;;;;;;;;4.00;3.00;;;;;;;;4999618;28;10206;-71
2021/04/06 06:20:37;;;;;;;;;5.33;5.33;;;;;;;;5001093;28;8874;-71
2021/04/06 06:23:20;;;;;;;;;4.67;4.67;;;;;;;;4997785;28;8895;-71
2021/04/06 06:26:14;;;;;;;;;3.67;3.67;;;;;;;;5006229;28;8906;-69
2021/04/06 06:28:41;;;;;;;;;3.00;3.00;;;;;;;;4992679;28;8872;-71
2021/04/06 06:31:09;;;;;;;;;3.00;3.00;;;;;;;;4974298;28;8837;-71
2021/04/06 06:33:36;;;;;;;;;6.00;6.00;;;;;;;;5000526;28;8867;-70
2021/04/06 06:36:06;;;;;;;;;3.67;3.67;;;;;;;;4994965;28;8917;-70
2021/04/06 06:38:36;;;;;;;;;2.33;2.33;;;;;;;;5001548;28;9026;-70
2021/04/06 06:41:14;;;;;;;;;4.67;4.67;;;;;;;;5001389;28;8926;-70
2021/04/06 06:43:42;;;;;;;;;6.00;6.00;;;;;;;;5002118;28;8871;-70
2021/04/06 06:46:20;;;;;;;;;3.00;3.00;;;;;;;;5002022;28;8873;-71
2021/04/06 06:48:54;;;;;;;;;4.67;4.67;;;;;;;;5003814;28;8942;-69
2021/04/06 06:51:28;;;;;;;;;4.00;4.00;;;;;;;;4998620;28;8994;-69
2021/04/06 06:53:56;;;;;;;;;4.00;4.00;;;;;;;;5001130;28;8944;-70
2021/04/06 06:56:34;;;;;;;;;4.00;4.00;;;;;;;;5001572;28;8903;-71
2021/04/06 06:59:00;;;;;;;;;6.00;6.00;;;;;;;;5011922;28;8867;-69
2021/04/06 07:01:29;;;;;;;;;6.33;6.33;;;;;;;;4996947;28;9449;-70
2021/04/06 07:04:03;;;;;;;;;6.00;4.67;;;;;;;;5001818;28;8878;-70
2021/04/06 07:06:30;;;;;;;;;6.00;6.00;;;;;;;;4984917;28;8877;-70
2021/04/06 07:08:58;;;;;;;;;7.00;7.00;;;;;;;;5000842;28;8870;-70
2021/04/06 07:11:25;;;;;;;;;7.00;7.00;;;;;;;;4996536;28;8918;-72
2021/04/06 07:13:53;;;;;;;;;6.00;6.00;;;;;;;;4999569;28;8911;-71
2021/04/06 07:16:22;;;;;;;;;4.00;4.00;;;;;;;;4993781;28;8875;-71
2021/04/06 07:18:50;;;;;;;;;7.00;7.00;;;;;;;;4999232;28;8854;-71
2021/04/06 07:21:18;;;;;;;;;6.67;6.67;;;;;;;;5005159;28;8902;-71
2021/04/06 07:23:52;;;;;;;;;8.33;6.33;;;;;;;;4999090;28;8870;-71
2021/04/06 07:26:22;;;;;;;;;7.00;7.00;;;;;;;;4998324;28;8986;-72
2021/04/06 07:28:49;;;;;;;;;4.00;4.00;;;;;;;;4998392;28;8953;-71
2021/04/06 07:31:18;;;;;;;;;6.00;6.00;;;;;;;;4994023;28;8823;-71
2021/04/06 07:33:48;;;;;;;;;6.00;6.00;;;;;;;;5000018;28;8874;-71
2021/04/06 07:36:16;;;;;;;;;6.33;6.33;;;;;;;;4997817;28;9689;-70
2021/04/06 07:38:46;;;;;;;;;7.00;7.00;;;;;;;;4998752;28;8885;-71
2021/04/06 07:41:15;;;;;;;;;6.67;6.67;;;;;;;;4998386;28;8855;-71
2021/04/06 07:43:45;;;;;;;;;4.00;4.00;;;;;;;;5005065;28;8893;-71
2021/04/06 07:46:43;;;;;;;;;7.33;4.33;;;;;;;;4993442;28;8892;-70
2021/04/06 07:49:11;;;;;;;;;2.00;2.00;;;;;;;;4993593;28;8950;-71
2021/04/06 07:51:40;;;;;;;;;5.67;5.00;;;;;;;;5000506;28;8856;-71
2021/04/06 07:54:09;;;;;;;;;7.00;5.00;;;;;;;;4996889;28;8887;-72
2021/04/06 07:56:49;;;;;;;;;7.00;7.00;;;;;;;;4997579;28;11733;-71
2021/04/06 07:59:55;;;;;;;;;8.00;8.00;;;;;;;;4998826;28;11519;-72
2021/04/06 08:02:27;;;;;;;;;11.00;8.00;;;;;;;;4933240;28;11556;-72
2021/04/06 08:04:57;;;;;;;;;5.50;5.50;;;;;;;;4985767;28;11646;-70
2021/04/06 08:07:32;;;;;;;;;4.00;4.00;;;;;;;;4998581;28;11655;-70
2021/04/06 08:10:00;;;;;;;;;4.00;4.00;;;;;;;;4999655;28;11549;-71
2021/04/06 08:12:28;;;;;;;;;4.00;3.50;;;;;;;;4998077;28;11599;-70
2021/04/06 08:14:59;;;;;;;;;5.00;3.00;;;;;;;;4994038;28;11582;-70
2021/04/06 08:17:42;;;;;;;;;6.00;4.00;;;;;;;;4997301;28;11458;-71
2021/04/06 08:20:20;;;;;;;;;4.00;4.00;;;;;;;;4998718;28;11555;-71
2021/04/06 08:22:51;;;;;;;;;4.00;1.75;;;;;;;;4999998;28;11515;-70
2021/04/06 08:25:38;;;;;;;;;2.00;2.00;;;;;;;;4998123;28;11635;-71
2021/04/06 08:28:06;;;;;;;;;2.50;2.50;;;;;;;;5004052;28;11621;-70
2021/04/06 08:30:34;;;;;;;;;2.00;2.00;;;;;;;;4998037;28;11464;-70
2021/04/06 08:33:27;;;;;;;;;1.75;1.75;;;;;;;;4999330;28;11578;-71
2021/04/06 08:36:04;;;;;;;;;3.25;3.00;;;;;;;;4998916;28;11525;-70
2021/04/06 08:38:45;;;;;;;;;1.00;1.00;;;;;;;;4996816;28;12409;-70
2021/04/06 08:41:13;;;;;;;;;3.00;1.00;;;;;;;;4998676;28;11542;-71
2021/04/06 08:43:43;;;;;;;;;0.75;0.75;;;;;;;;4999799;28;11472;-71
2021/04/06 08:46:13;;;;;;;;;3.50;2.00;;;;;;;;4997763;28;11530;-68
2021/04/06 08:48:55;;;;;;;;;1.00;1.00;;;;;;;;5001580;28;11470;-70
2021/04/06 08:51:24;;;;;;;;;1.50;1.50;;;;;;;;4994438;28;11508;-70
2021/04/06 08:53:52;;;;;;;;;1.00;0.75;;;;;;;;4999077;28;11531;-69
2021/04/06 08:56:22;;;;;;;;;5.75;5.75;;;;;;;;4998368;28;12411;-70
2021/04/06 08:58:49;;;;;;;;;2.00;2.00;;;;;;;;4997027;28;11589;-70
2021/04/06 09:01:20;;;;;;;;;1.25;1.00;;;;;;;;4998724;28;11599;-71
2021/04/06 09:03:46;;;;;;;;;1.50;1.00;;;;;;;;4998001;28;11524;-69
2021/04/06 09:06:14;;;;;;;;;1.00;1.00;;;;;;;;4999288;28;11709;-69
2021/04/06 09:08:48;;;;;;;;;2.75;1.00;;;;;;;;4996619;28;11520;-70
2021/04/06 09:11:17;;;;;;;;;1.00;1.00;;;;;;;;5007459;28;11491;-70
2021/04/06 09:13:44;;;;;;;;;2.00;1.00;;;;;;;;4998912;28;11477;-70
2021/04/06 09:16:11;;;;;;;;;2.00;2.00;;;;;;;;5000750;28;11543;-70
2021/04/06 09:18:40;;;;;;;;;2.25;1.00;;;;;;;;4978441;28;11573;-70
2021/04/06 09:21:08;;;;;;;;;4.00;1.50;;;;;;;;5002500;28;12338;-70
2021/04/06 09:23:37;;;;;;;;;3.25;1.75;;;;;;;;5002777;28;11481;-71
2021/04/06 09:26:06;;;;;;;;;6.75;5.00;;;;;;;;5002003;28;11559;-70
2021/04/06 09:28:32;;;;;;;;;3.25;3.25;;;;;;;;4998403;28;11513;-70
2021/04/06 09:30:59;;;;;;;;;2.75;2.75;;;;;;;;5007187;28;11531;-70
2021/04/06 09:33:26;;;;;;;;;2.25;2.25;;;;;;;;4987498;28;11662;-70
2021/04/06 09:35:55;;;;;;;;;2.00;2.00;;;;;;;;5002835;28;11526;-70
2021/04/06 09:38:24;;;;;;;;;3.00;3.00;;;;;;;;5003777;28;11466;-69
2021/04/06 09:40:51;;;;;;;;;1.75;1.75;;;;;;;;5002843;28;12311;-69
2021/04/06 09:43:18;;;;;;;;;1.00;1.00;;;;;;;;5002284;28;11483;-69
2021/04/06 09:45:48;;;;;;;;;2.00;2.00;;;;;;;;5001698;28;11529;-70
2021/04/06 09:48:16;;;;;;;;;6.50;2.50;;;;;;;;5002031;28;11461;-70
2021/04/06 09:51:00;;;;;;;;;3.25;3.25;;;;;;;;5000385;28;11539;-70
2021/04/06 09:53:28;;;;;;;;;4.00;3.25;;;;;;;;5002691;28;11586;-71
2021/04/06 09:55:56;;;;;;;;;2.75;2.75;;;;;;;;5001963;28;11487;-70
2021/04/06 09:58:23;;;;;;;;;4.00;4.00;;;;;;;;4985212;28;11511;-71
2021/04/06 10:00:50;;;;;;;;;3.25;3.25;;;;;;;;5000627;28;11526;-70
2021/04/06 10:03:23;;;;;;;;;2.75;2.75;;;;;;;;5001076;28;11442;-69
2021/04/06 10:06:03;;;;;;;;;6.00;3.00;;;;;;;;4999859;28;11424;-70
2021/04/06 10:08:32;;;;;;;;;1.50;1.50;;;;;;;;4997110;28;11636;-72
2021/04/06 10:10:59;;;;;;;;;2.00;1.00;;;;;;;;5001680;28;11562;-70
2021/04/06 10:13:27;;;;;;;;;1.00;1.00;;;;;;;;5001167;28;11473;-70
2021/04/06 10:16:08;;;;;;;;;2.00;2.00;;;;;;;;5008647;28;11430;-69
2021/04/06 10:18:40;;;;;;;;;1.00;1.00;;;;;;;;5000506;28;11511;-69
2021/04/06 10:21:22;;;;;;;;;0.00;0.00;;;;;;;;4999637;28;11456;-70
2021/04/06 10:23:50;;;;;;;;;0.00;0.00;;;;;;;;5002322;28;11439;-68
2021/04/06 10:26:22;;;;;;;;;3.50;0.50;;;;;;;;5000355;28;11521;-69
2021/04/06 10:29:00;;;;;;;;;0.00;0.00;;;;;;;;5001208;28;11511;-69
2021/04/06 10:31:27;;;;;;;;;0.00;0.00;;;;;;;;5000683;28;11443;-68
2021/04/06 10:33:54;;;;;;;;;1.00;1.00;;;;;;;;4998324;28;11467;-69
2021/04/06 10:36:22;;;;;;;;;0.00;0.00;;;;;;;;5003254;28;11497;-68
2021/04/06 10:38:54;;;;;;;;;0.33;0.33;;;;;;;;5006492;28;11592;-72
2021/04/06 10:41:26;;;;;;;;;2.33;1.00;;;;;;;;4999915;28;11548;-71
2021/04/06 10:43:55;;;;;;;;;2.00;2.00;;;;;;;;4998628;28;8867;-71
2021/04/06 10:46:24;;;;;;;;;1.67;1.67;;;;;;;;5001099;28;11530;-70
2021/04/06 10:48:59;;;;;;;;;2.00;2.00;;;;;;;;5000523;28;8880;-69
2021/04/06 10:51:28;;;;;;;;;1.00;1.00;;;;;;;;4992827;28;11578;-71
2021/04/06 10:53:57;;;;;;;;;1.00;1.00;;;;;;;;4998914;28;12350;-71
2021/04/06 10:56:26;;;;;;;;;4.00;2.00;;;;;;;;4981825;28;11519;-70
2021/04/06 10:58:58;;;;;;;;;2.00;2.00;;;;;;;;5006084;28;11528;-70
2021/04/06 11:01:27;;;;;;;;;1.50;1.50;;;;;;;;4999415;28;11438;-71
2021/04/06 11:03:56;;;;;;;;;1.00;1.00;;;;;;;;4999618;28;12278;-71
2021/04/06 11:06:31;;;;;;;;;0.25;0.25;;;;;;;;5003874;28;11493;-70
2021/04/06 11:08:58;;;;;;;;;1.50;1.50;;;;;;;;4998968;28;11559;-70
2021/04/06 11:11:29;;;;;;;;;2.00;2.00;;;;;;;;5005398;28;11530;-70
2021/04/06 11:13:58;;;;;;;;;1.00;1.00;;;;;;;;4986621;28;12485;-71
2021/04/06 11:16:25;;;;;;;;;2.25;1.00;;;;;;;;4999440;28;11615;-70
2021/04/06 11:19:05;;;;;;;;;1.50;1.50;;;;;;;;4995437;28;11581;-71
2021/04/06 11:21:34;;;;;;;;;2.00;2.00;;;;;;;;5004885;28;11533;-71
2021/04/06 11:24:02;;;;;;;;;1.00;1.00;;;;;;;;5000839;28;12365;-71
2021/04/06 11:26:29;;;;;;;;;1.00;1.00;;;;;;;;4979651;28;11460;-72
2021/04/06 11:28:56;;;;;;;;;1.00;1.00;;;;;;;;4998970;28;11464;-70
2021/04/06 11:31:23;;;;;;;;;2.00;2.00;;;;;;;;4996517;28;11408;-71
2021/04/06 11:33:50;;;;;;;;;1.00;1.00;;;;;;;;4999877;28;11532;-71
2021/04/06 11:36:17;;;;;;;;;1.00;1.00;;;;;;;;4998189;28;11597;-71
2021/04/06 11:38:45;;;;;;;;;2.00;2.00;;;;;;;;4999532;28;11479;-71
2021/04/06 11:41:13;;;;;;;;;3.00;1.00;;;;;;;;4996530;28;11440;-72
2021/04/06 11:43:39;;;;;;;;;1.25;1.25;;;;;;;;5003861;28;11457;-71
2021/04/06 11:46:07;;;;;;;;;1.00;1.00;;;;;;;;5000065;28;12335;-71
2021/04/06 11:48:33;;;;;;;;;2.00;2.00;;;;;;;;4995911;28;11483;-70
2021/04/06 11:51:00;;;;;;;;;0.25;0.25;;;;;;;;4997859;28;11486;-71
2021/04/06 11:53:27;;;;;;;;;0.25;0.25;;;;;;;;4995427;28;11454;-71
2021/04/06 11:55:55;;;;;;;;;1.00;1.00;;;;;;;;4997743;28;11534;-71
2021/04/06 11:58:22;;;;;;;;;2.00;2.00;;;;;;;;4998844;28;11483;-71
2021/04/06 12:00:48;;;;;;;;;5.50;5.50;;;;;;;;4996937;28;11467;-71
2021/04/06 12:03:15;;;;;;;;;4.00;4.00;;;;;;;;4998347;28;11584;-72
2021/04/06 12:05:43;;;;;;;;;4.00;4.00;;;;;;;;5004513;28;11514;-72
2021/04/06 12:08:10;;;;;;;;;4.25;4.00;;;;;;;;4980796;28;11560;-71
2021/04/06 12:10:37;;;;;;;;;7.25;7.25;;;;;;;;4995842;28;11594;-72
2021/04/06 12:13:05;;;;;;;;;2.00;2.00;;;;;;;;4996638;28;11517;-71
2021/04/06 12:15:32;;;;;;;;;4.75;4.75;;;;;;;;4996977;28;11696;-71
2021/04/06 12:18:00;;;;;;;;;10.75;9.50;;;;;;;;4997612;28;11499;-72
2021/04/06 12:20:28;;;;;;;;;1.00;1.00;;;;;;;;4980697;28;12117;-71
2021/04/06 12:22:54;;;;;;;;;1.00;1.00;;;;;;;;4980140;28;11517;-71
2021/04/06 12:25:21;;;;;;;;;10.50;8.00;;;;;;;;5000827;28;11655;-72
2021/04/06 12:27:48;;;;;;;;;6.00;6.00;;;;;;;;4997400;28;11556;-71
2021/04/06 12:30:17;;;;;;;;;8.50;7.25;;;;;;;;5004538;28;12428;-72
2021/04/06 12:32:44;;;;;;;;;6.25;6.00;;;;;;;;4998003;28;11498;-72
2021/04/06 12:35:11;;;;;;;;;3.00;3.00;;;;;;;;4997878;28;11554;-73
2021/04/06 12:37:38;;;;;;;;;9.75;9.75;;;;;;;;4996235;28;13591;-72
2021/04/06 12:40:08;;;;;;;;;2.00;2.00;;;;;;;;4997813;28;11584;-73
2021/04/06 12:42:35;;;;;;;;;2.00;2.00;;;;;;;;4979742;28;11522;-71
2021/04/06 12:45:04;;;;;;;;;1.50;1.50;;;;;;;;4997072;28;11465;-72
2021/04/06 12:47:33;;;;;;;;;1.00;1.00;;;;;;;;4998009;28;11461;-73
2021/04/06 12:50:00;;;;;;;;;6.00;6.00;;;;;;;;5003885;28;11544;-72
2021/04/06 12:52:27;;;;;;;;;3.00;1.00;;;;;;;;5003390;28;11531;-72
2021/04/06 12:54:54;;;;;;;;;9.25;7.00;;;;;;;;5001658;28;11568;-72
2021/04/06 12:57:22;;;;;;;;;2.50;2.50;;;;;;;;4982650;28;11585;-73
2021/04/06 12:59:50;;;;;;;;;5.00;5.00;;;;;;;;5002912;28;11499;-72
2021/04/06 13:02:16;;;;;;;;;4.00;4.00;;;;;;;;4997282;28;11536;-71
2021/04/06 13:04:44;;;;;;;;;5.00;5.00;;;;;;;;5000472;28;11548;-71
2021/04/06 13:07:11;;;;;;;;;7.50;7.50;;;;;;;;4999467;28;11520;-72
2021/04/06 13:09:38;;;;;;;;;14.00;11.00;;;;;;;;5000126;28;11477;-72
2021/04/06 13:12:06;;;;;;;;;18.25;15.50;;;;;;;;5004138;28;11483;-70
2021/04/06 13:14:33;;;;;;;;;1.75;1.75;;;;;;;;5001850;28;11492;-73
2021/04/06 13:17:00;;;;;;;;;3.00;3.00;;;;;;;;5001248;28;11560;-71
2021/04/06 13:19:27;;;;;;;;;1.00;1.00;;;;;;;;5000619;28;11651;-72
2021/04/06 13:21:55;;;;;;;;;1.50;1.50;;;;;;;;5002070;28;11602;-72
2021/04/06 13:24:23;;;;;;;;;3.50;3.50;;;;;;;;4993995;28;11530;-71
2021/04/06 13:26:50;;;;;;;;;2.00;2.00;;;;;;;;5002448;28;12299;-72
2021/04/06 13:29:18;;;;;;;;;23.75;22.75;;;;;;;;5001028;28;11767;-72
2021/04/06 13:31:45;;;;;;;;;4.50;4.50;;;;;;;;5000082;28;11552;-72
2021/04/06 13:34:12;;;;;;;;;5.00;5.00;;;;;;;;5006172;28;11448;-72
2021/04/06 13:36:40;;;;;;;;;3.00;3.00;;;;;;;;5000550;28;11481;-72
2021/04/06 13:39:10;;;;;;;;;2.25;2.25;;;;;;;;4996108;28;11464;-72
2021/04/06 13:41:36;;;;;;;;;5.00;3.00;;;;;;;;4994333;28;11562;-72
2021/04/06 13:44:04;;;;;;;;;1.00;1.00;;;;;;;;5000969;28;11461;-73
2021/04/06 13:46:32;;;;;;;;;1.75;1.75;;;;;;;;4999951;28;12322;-72
2021/04/06 13:48:59;;;;;;;;;2.00;2.00;;;;;;;;5007329;28;11522;-73
2021/04/06 13:51:26;;;;;;;;;2.75;2.00;;;;;;;;4982505;28;11471;-73
2021/04/06 13:53:53;;;;;;;;;1.00;1.00;;;;;;;;4999353;28;11558;-71
2021/04/06 13:56:21;;;;;;;;;4.50;2.00;;;;;;;;5007705;28;11576;-72
2021/04/06 13:58:48;;;;;;;;;1.25;1.25;;;;;;;;4999477;28;11540;-72
2021/04/06 14:01:15;;;;;;;;;0.75;0.75;;;;;;;;4997216;28;11514;-72
2021/04/06 14:03:43;;;;;;;;;2.25;2.25;;;;;;;;4996963;28;11451;-73
2021/04/06 14:06:10;;;;;;;;;3.00;3.00;;;;;;;;4999598;28;11461;-73
2021/04/06 14:08:37;;;;;;;;;5.00;2.00;;;;;;;;4997755;28;11479;-73
2021/04/06 14:11:03;;;;;;;;;5.50;5.50;;;;;;;;4998162;28;11511;-73
2021/04/06 14:13:31;;;;;;;;;2.25;2.25;;;;;;;;5000057;28;11437;-72
2021/04/06 14:15:59;;;;;;;;;0.00;0.00;;;;;;;;5000159;28;11430;-72
2021/04/06 14:18:26;;;;;;;;;1.75;1.75;;;;;;;;5005022;28;11463;-72
2021/04/06 14:20:52;;;;;;;;;9.75;7.00;;;;;;;;4999575;28;11657;-73
2021/04/06 14:23:26;;;;;;;;;7.00;7.00;;;;;;;;5002843;28;11500;-72
2021/04/06 14:25:53;;;;;;;;;2.00;2.00;;;;;;;;4998327;28;12464;-73
2021/04/06 14:28:21;;;;;;;;;1.50;1.50;;;;;;;;5000763;28;11490;-73
2021/04/06 14:30:51;;;;;;;;;5.25;5.25;;;;;;;;5000494;28;11470;-73
2021/04/06 14:33:19;;;;;;;;;2.00;2.00;;;;;;;;4999867;28;12347;-73
2021/04/06 14:35:48;;;;;;;;;2.25;2.25;;;;;;;;4998667;28;11509;-72
2021/04/06 14:38:15;;;;;;;;;8.75;8.00;;;;;;;;5003872;28;11418;-72
2021/04/06 14:40:42;;;;;;;;;1.25;0.50;;;;;;;;5000830;28;12429;-73
2021/04/06 14:43:14;;;;;;;;;2.00;2.00;;;;;;;;4999340;28;11557;-71
2021/04/06 14:45:43;;;;;;;;;0.00;0.00;;;;;;;;5000225;28;11700;-72
2021/04/06 14:48:12;;;;;;;;;0.00;0.00;;;;;;;;5001058;28;11661;-72
2021/04/06 14:50:39;;;;;;;;;0.00;0.00;;;;;;;;4998944;28;11522;-72
2021/04/06 14:53:05;;;;;;;;;1.00;0.00;;;;;;;;5000725;28;12302;-71
2021/04/06 14:55:33;;;;;;;;;1.00;0.00;;;;;;;;4998565;28;12020;-71
2021/04/06 14:58:00;;;;;;;;;0.00;0.00;;;;;;;;5000778;28;11584;-72
2021/04/06 15:00:27;;;;;;;;;0.00;0.00;;;;;;;;5006966;28;11518;-71
2021/04/06 15:02:55;;;;;;;;;0.00;0.00;;;;;;;;5000855;28;11539;-71
2021/04/06 15:05:23;;;;;;;;;0.00;0.00;;;;;;;;5000434;28;11578;-71